Decoded Metar for SCCI (PUNTA ARENAS in CHILE) (IATA:PUQ) | Meteo·Mobile Aviation Weather
aviador You're here:

SCCI Decoded Metar

PUNTA ARENAS in CHILE
Report Time2019-10-22 14:00:00
UTC Time2019-10-22 14:28:32
Flight Rules vfr VFR
Wind300° at 17 kt
W.Decomp.*RWY 30: 16.6 kt HW 3.8 kt LCW
RWY 25: 13.6 kt HW 10.2 kt RCW
RWY 01: 2.1 kt HW 16.9 kt LCW
Visibility9999 m
Phenomena:N/A
Clouds:Scattered 049 Hf
Broken 150 Hf
Expected CloudBase > 3,200 ft AGL from Temp-Dew spread
Ceiling15,000 ft
Temp10°C (ISA -5)
Dew Point02°C (58% RH)
AAT2.2°C
QNH1015 hPa
Density Alt-417 ft
Elevation121 ft
Report Wrong Elevation
Raw Report
SCCI 221400Z 30017KT 9999 SCT049 BKN150 10/02 Q1015 NOSIG=

Extra information for SCCI:More info

Metar Taf Metar & Taf Last 4 Metars F.Rules Stats Wind Profile Meteogram Temp Stats Airport Information Weather charts Add Link Nearby VenuesMetar ALERT Operation Metar Decoded Social comments